Time;durP1;ratioP1;P1;durP2;ratioP2;P2;SDS_P1;SDS_P2;PMS_P1;PMS_P2;Temp;Humidity;BMP_temperature;BMP_pressure;BME280_temperature;BME280_humidity;BME280_pressure;Samples;Min_cycle;Max_cycle;Signal;HPM_P1;HPM_P2
2022/05/14 00:01:37;;;;;;;7.13;3.60;;;12.80;99.90;;;;;;4999325;28;20726;-90
2022/05/14 00:04:07;;;;;;;8.00;3.60;;;12.80;99.90;;;;;;5000226;28;20205;-90
2022/05/14 00:06:46;;;;;;;9.93;3.40;;;12.80;99.90;;;;;;5001091;28;21085;-92
2022/05/14 00:09:13;;;;;;;11.90;3.10;;;12.80;99.90;;;;;;4999866;28;20535;-89
2022/05/14 00:14:40;;;;;;;8.57;3.13;;;12.80;99.90;;;;;;4996847;28;20222;-90
2022/05/14 00:17:20;;;;;;;8.33;3.13;;;12.80;99.90;;;;;;5001904;28;20212;-90
2022/05/14 00:19:49;;;;;;;7.63;2.93;;;12.70;99.90;;;;;;4998171;28;20810;-91
2022/05/14 00:22:19;;;;;;;12.53;3.30;;;12.70;99.90;;;;;;5001193;28;20263;-90
2022/05/14 00:24:51;;;;;;;7.43;2.87;;;12.70;99.90;;;;;;5000665;28;20209;-91
2022/05/14 00:27:22;;;;;;;9.40;3.43;;;12.60;99.90;;;;;;5001188;28;20303;-89
2022/05/14 00:29:49;;;;;;;14.07;3.50;;;12.60;99.90;;;;;;5003223;28;20650;-90
2022/05/14 00:32:18;;;;;;;9.20;3.63;;;12.60;99.90;;;;;;5000558;28;20227;-89
2022/05/14 00:34:45;;;;;;;9.13;3.20;;;12.60;99.90;;;;;;5000737;28;20338;-92
2022/05/14 00:37:13;;;;;;;9.90;3.00;;;12.60;99.90;;;;;;5000212;28;20206;-90
2022/05/14 00:39:45;;;;;;;9.53;2.87;;;12.50;99.90;;;;;;5000205;28;20203;-91
2022/05/14 00:42:18;;;;;;;12.63;3.30;;;12.50;99.90;;;;;;5000151;28;20197;-90
2022/05/14 00:44:46;;;;;;;9.17;2.90;;;12.50;99.90;;;;;;5002087;28;20274;-91
2022/05/14 00:47:18;;;;;;;10.87;3.30;;;12.50;99.90;;;;;;5004415;28;20236;-90
2022/05/14 00:49:48;;;;;;;8.10;3.00;;;12.50;99.90;;;;;;5003450;28;20209;-89
2022/05/14 00:52:19;;;;;;;7.93;2.67;;;12.40;99.90;;;;;;5001040;28;21274;-90
2022/05/14 00:55:03;;;;;;;10.57;3.10;;;12.50;99.90;;;;;;5002826;28;20229;-90
2022/05/14 00:57:38;;;;;;;13.80;3.47;;;12.50;99.90;;;;;;5003312;28;20226;-89
2022/05/14 01:00:13;;;;;;;9.40;3.57;;;12.50;99.90;;;;;;5003633;28;20205;-90
2022/05/14 01:03:01;;;;;;;9.70;3.60;;;12.30;99.90;;;;;;5002153;28;20193;-91
2022/05/14 01:05:29;;;;;;;10.83;3.43;;;12.40;99.90;;;;;;5005495;28;20241;-86
2022/05/14 01:08:03;;;;;;;11.30;3.43;;;12.30;99.90;;;;;;4995449;28;20228;-88
2022/05/14 01:10:42;;;;;;;10.17;3.93;;;12.30;99.90;;;;;;5003089;28;20252;-91
2022/05/14 01:13:12;;;;;;;15.30;4.23;;;12.30;99.90;;;;;;5005691;28;20298;-93
2022/05/14 01:15:55;;;;;;;13.67;3.73;;;12.30;99.90;;;;;;4999361;28;20231;-90
2022/05/14 01:18:28;;;;;;;11.33;4.00;;;12.30;99.90;;;;;;5007024;28;20217;-92
2022/05/14 01:21:00;;;;;;;8.30;3.63;;;12.20;99.90;;;;;;5002881;28;20208;-91
2022/05/14 01:26:58;;;;;;;11.53;3.23;;;12.20;99.90;;;;;;5015137;28;20245;-90
2022/05/14 01:29:31;;;;;;;9.73;3.60;;;12.20;99.90;;;;;;5010996;28;20241;-91
2022/05/14 01:32:02;;;;;;;12.83;3.87;;;12.20;99.90;;;;;;5014799;28;20195;-90
2022/05/14 01:34:36;;;;;;;13.00;3.70;;;12.20;99.90;;;;;;5032778;28;20203;-89
2022/05/14 01:37:05;;;;;;;16.43;4.53;;;12.20;99.90;;;;;;5034085;28;20218;-92
2022/05/14 01:39:35;;;;;;;14.70;4.10;;;12.10;99.90;;;;;;5017555;28;20221;-90
2022/05/14 01:42:11;;;;;;;18.50;5.60;;;12.10;99.90;;;;;;5016131;28;20211;-91
2022/05/14 01:44:38;;;;;;;12.63;4.43;;;12.10;99.90;;;;;;5008107;28;20241;-90
2022/05/14 01:47:15;;;;;;;12.33;4.37;;;12.10;99.90;;;;;;5006297;28;20429;-90
2022/05/14 01:49:47;;;;;;;13.07;4.90;;;11.90;99.90;;;;;;5007834;28;20226;-91
2022/05/14 01:52:23;;;;;;;12.33;4.00;;;12.10;99.90;;;;;;5004971;28;20200;-91
2022/05/14 01:54:59;;;;;;;13.67;4.33;;;12.10;99.90;;;;;;5006387;28;20260;-92
2022/05/14 01:57:26;;;;;;;10.93;4.00;;;12.10;99.90;;;;;;5015489;28;20210;-91
2022/05/14 01:59:55;;;;;;;13.63;4.57;;;12.00;99.90;;;;;;5015105;28;20221;-91
2022/05/14 02:02:22;;;;;;;13.17;3.70;;;12.00;99.90;;;;;;5015778;28;20206;-91
2022/05/14 02:04:50;;;;;;;14.97;4.40;;;11.90;99.90;;;;;;5015710;28;20195;-90
2022/05/14 02:07:19;;;;;;;12.80;3.93;;;12.00;99.90;;;;;;5015081;28;20254;-90
2022/05/14 02:09:51;;;;;;;9.10;3.90;;;12.00;99.90;;;;;;5015309;28;20215;-92
2022/05/14 02:12:19;;;;;;;9.27;3.80;;;12.00;99.90;;;;;;5015765;28;20198;-92
2022/05/14 02:15:00;;;;;;;12.77;4.23;;;11.90;99.90;;;;;;5017838;28;20204;-93
2022/05/14 02:17:28;;;;;;;15.57;4.40;;;11.90;99.90;;;;;;5016679;28;20212;-92
2022/05/14 02:19:58;;;;;;;10.90;4.40;;;11.90;99.90;;;;;;5002462;28;20195;-91
2022/05/14 02:22:26;;;;;;;9.73;4.03;;;11.90;99.90;;;;;;5003163;28;20262;-92
2022/05/14 02:24:55;;;;;;;12.00;4.77;;;11.90;99.90;;;;;;5004981;28;20281;-90
2022/05/14 02:27:24;;;;;;;12.37;5.20;;;11.90;99.90;;;;;;5011228;28;20247;-90
2022/05/14 02:30:01;;;;;;;11.03;4.30;;;11.90;99.90;;;;;;5013784;28;20266;-91
2022/05/14 02:32:31;;;;;;;9.33;4.33;;;11.90;99.90;;;;;;5004562;28;20206;-90
2022/05/14 02:35:10;;;;;;;13.83;4.80;;;11.90;99.90;;;;;;5005142;28;20301;-89
2022/05/14 02:37:46;;;;;;;9.07;4.37;;;11.90;99.90;;;;;;5004071;28;20218;-90
2022/05/14 02:40:23;;;;;;;17.93;5.20;;;11.80;99.90;;;;;;5009380;28;20222;-93
2022/05/14 02:42:54;;;;;;;15.33;5.47;;;11.70;99.90;;;;;;5016455;28;20272;-91
2022/05/14 02:45:28;;;;;;;15.73;4.90;;;11.70;99.90;;;;;;5013612;28;20214;-90
2022/05/14 02:48:02;;;;;;;12.83;5.23;;;11.70;99.90;;;;;;4999611;28;20227;-91
2022/05/14 02:50:33;;;;;;;11.63;5.33;;;11.70;99.90;;;;;;5009720;28;20238;-91
2022/05/14 02:53:08;;;;;;;13.37;5.43;;;11.70;99.90;;;;;;5012087;28;20215;-91
2022/05/14 02:55:36;;;;;;;15.37;6.03;;;11.60;99.90;;;;;;5009074;28;20289;-92
2022/05/14 02:58:13;;;;;;;15.70;5.17;;;11.60;99.90;;;;;;5009242;28;20214;-91
2022/05/14 03:00:52;;;;;;;15.47;5.90;;;11.60;99.90;;;;;;5003274;28;20211;-93
2022/05/14 03:03:26;;;;;;;16.10;6.70;;;11.60;99.90;;;;;;5004818;28;20213;-90
2022/05/14 03:06:05;;;;;;;16.90;6.47;;;11.60;99.90;;;;;;5001006;28;20234;-90
2022/05/14 03:08:38;;;;;;;18.40;7.20;;;11.50;99.90;;;;;;5001392;28;20257;-90
2022/05/14 03:11:06;;;;;;;16.87;6.40;;;11.60;99.90;;;;;;5000124;28;20279;-90
2022/05/14 03:13:55;;;;;;;19.03;7.40;;;11.50;99.90;;;;;;5003204;28;20217;-90
2022/05/14 03:16:26;;;;;;;19.20;7.37;;;11.50;99.90;;;;;;5002958;28;20221;-90
2022/05/14 03:19:10;;;;;;;16.53;6.60;;;11.50;99.90;;;;;;5002633;28;20198;-91
2022/05/14 03:21:57;;;;;;;21.23;7.73;;;11.50;99.90;;;;;;4990042;28;20213;-90
2022/05/14 03:24:25;;;;;;;17.83;6.87;;;11.50;99.90;;;;;;5000049;28;20223;-89
2022/05/14 03:27:05;;;;;;;16.57;7.43;;;11.50;99.90;;;;;;5000594;28;20218;-92
2022/05/14 03:29:37;;;;;;;20.50;7.17;;;11.50;99.90;;;;;;5000787;28;20648;-90
2022/05/14 03:32:06;;;;;;;15.97;6.80;;;11.50;99.90;;;;;;5000646;28;20211;-91
2022/05/14 03:34:36;;;;;;;15.73;7.27;;;11.40;99.90;;;;;;5000881;28;20624;-91
2022/05/14 03:37:13;;;;;;;18.57;8.33;;;11.50;99.90;;;;;;5000288;28;20298;-90
2022/05/14 03:39:46;;;;;;;16.13;7.13;;;11.50;99.90;;;;;;4993942;28;20254;-90
2022/05/14 03:42:18;;;;;;;19.63;8.10;;;11.40;99.90;;;;;;5004022;28;20203;-90
2022/05/14 03:44:48;;;;;;;21.67;8.90;;;11.40;99.90;;;;;;5004555;28;20783;-88
2022/05/14 03:47:21;;;;;;;17.77;7.80;;;11.40;99.90;;;;;;5004900;28;20238;-89
2022/05/14 03:50:08;;;;;;;26.90;11.30;;;11.40;99.90;;;;;;5003843;28;20199;-90
2022/05/14 03:52:48;;;;;;;17.53;8.00;;;11.40;99.90;;;;;;4995999;28;20202;-91
2022/05/14 03:55:25;;;;;;;19.80;9.03;;;11.40;99.90;;;;;;5004156;28;20222;-89
2022/05/14 03:58:11;;;;;;;19.43;8.63;;;11.40;99.90;;;;;;5007322;28;20209;-92
2022/05/14 04:00:52;;;;;;;17.90;8.47;;;11.40;99.90;;;;;;5003653;28;20204;-89
2022/05/14 04:03:23;;;;;;;20.27;8.20;;;11.40;99.90;;;;;;5004053;28;20201;-92
2022/05/14 04:06:03;;;;;;;16.77;7.93;;;11.40;99.90;;;;;;5006655;28;20238;-89
2022/05/14 04:08:56;;;;;;;18.43;8.30;;;11.40;99.90;;;;;;5004893;28;20713;-89
2022/05/14 04:11:25;;;;;;;20.87;8.40;;;11.50;99.90;;;;;;5015342;28;20238;-89
2022/05/14 04:13:57;;;;;;;14.93;7.70;;;11.40;99.90;;;;;;5004306;28;20195;-88
2022/05/14 04:16:26;;;;;;;22.97;9.13;;;11.40;99.90;;;;;;5003488;28;20203;-90
2022/05/14 04:18:57;;;;;;;20.70;7.93;;;11.50;99.90;;;;;;4999495;28;20207;-90
2022/05/14 04:21:29;;;;;;;16.63;8.27;;;11.50;99.90;;;;;;5004240;28;20209;-91
2022/05/14 04:24:04;;;;;;;21.70;9.03;;;11.60;99.90;;;;;;5005041;28;20210;-90
2022/05/14 04:26:39;;;;;;;20.27;8.40;;;11.60;99.90;;;;;;5003592;28;20224;-90
2022/05/14 04:29:06;;;;;;;21.43;8.50;;;11.60;99.90;;;;;;4994425;28;21043;-89
2022/05/14 04:31:41;;;;;;;31.93;8.77;;;11.70;99.90;;;;;;5003139;28;20225;-89
2022/05/14 04:34:18;;;;;;;22.73;9.50;;;11.70;99.90;;;;;;5002467;28;20234;-90
2022/05/14 04:36:49;;;;;;;31.47;11.13;;;11.80;99.90;;;;;;5002690;28;20269;-90
2022/05/14 04:39:18;;;;;;;19.13;8.63;;;11.80;99.90;;;;;;5000950;28;20250;-91
2022/05/14 04:42:07;;;;;;;28.57;9.03;;;11.80;99.90;;;;;;5004724;28;20203;-92
2022/05/14 04:44:49;;;;;;;22.57;9.03;;;11.90;99.90;;;;;;5004576;28;20226;-93
2022/05/14 04:47:30;;;;;;;20.70;8.53;;;12.00;99.90;;;;;;5005315;28;20223;-90
2022/05/14 04:49:59;;;;;;;23.83;8.87;;;12.10;99.90;;;;;;5002687;28;20227;-90
2022/05/14 04:52:29;;;;;;;23.13;9.60;;;12.10;99.90;;;;;;4996130;28;20220;-90
2022/05/14 04:55:04;;;;;;;24.97;9.60;;;12.20;99.90;;;;;;5005330;28;20297;-87
2022/05/14 04:57:48;;;;;;;23.87;8.73;;;12.20;99.90;;;;;;4995063;28;20213;-89
2022/05/14 05:00:19;;;;;;;22.50;9.90;;;12.20;99.90;;;;;;4992044;28;20671;-87
2022/05/14 05:05:35;;;;;;;25.40;9.50;;;12.30;99.90;;;;;;5014626;28;20211;-87
2022/05/14 05:08:50;;;;;;;23.03;8.87;;;12.40;99.90;;;;;;5017667;28;20248;-91
2022/05/14 05:11:28;;;;;;;23.27;10.00;;;12.40;99.90;;;;;;5013393;28;20237;-90
2022/05/14 05:14:29;;;;;;;21.70;9.37;;;12.50;99.90;;;;;;5013002;28;20207;-92
2022/05/14 05:17:05;;;;;;;26.00;8.53;;;12.60;99.90;;;;;;4997871;28;20342;-90
2022/05/14 05:19:39;;;;;;;19.90;8.83;;;12.70;99.90;;;;;;4997603;28;20306;-91
2022/05/14 05:22:20;;;;;;;23.67;8.70;;;12.90;99.90;;;;;;4997725;28;20222;-92
2022/05/14 05:24:50;;;;;;;19.07;7.87;;;12.80;99.90;;;;;;4998394;28;20207;-90
2022/05/14 05:27:18;;;;;;;26.37;9.10;;;12.80;99.90;;;;;;4991916;28;20206;-91
2022/05/14 05:29:54;;;;;;;21.00;8.50;;;13.10;99.90;;;;;;4995056;28;20253;-87
2022/05/14 05:32:24;;;;;;;19.43;9.17;;;13.10;99.90;;;;;;4994224;28;20288;-88
2022/05/14 05:34:56;;;;;;;23.43;9.97;;;13.30;99.90;;;;;;4994240;28;20213;-90
2022/05/14 05:37:57;;;;;;;22.13;8.70;;;13.20;99.90;;;;;;4997268;28;20229;-89
2022/05/14 05:40:40;;;;;;;19.30;8.73;;;13.50;99.90;;;;;;5008353;28;20195;-88
2022/05/14 05:43:16;;;;;;;23.73;9.03;;;13.80;99.90;;;;;;5005678;28;20275;-85
2022/05/14 05:45:56;;;;;;;24.47;7.80;;;14.40;99.90;;;;;;5008950;28;20187;-88
2022/05/14 05:48:35;;;;;;;23.03;8.63;;;;;;;;;;5006681;28;20234;-89
2022/05/14 05:51:12;;;;;;;14.70;7.10;;;16.30;99.90;;;;;;4995519;28;20555;-89
2022/05/14 05:56:57;;;;;;;18.58;7.57;;;17.70;99.90;;;;;;4996637;28;20227;-88
2022/05/14 05:59:50;;;;;;;15.10;6.40;;;18.30;99.90;;;;;;4997042;28;20214;-88
2022/05/14 06:02:33;;;;;;;18.73;6.10;;;18.80;99.90;;;;;;4975057;28;20204;-88
2022/05/14 06:05:23;;;;;;;20.88;6.95;;;19.00;99.90;;;;;;4992947;28;20227;-88
2022/05/14 06:08:25;;;;;;;19.95;6.60;;;20.00;99.90;;;;;;4993060;28;20242;-87
2022/05/14 06:14:31;;;;;;;16.42;6.32;;;20.50;99.90;;;;;;5007364;28;20215;-87
2022/05/14 06:17:18;;;;;;;18.13;6.28;;;21.10;99.90;;;;;;5009969;28;20238;-87
2022/05/14 06:19:52;;;;;;;20.48;6.82;;;21.90;99.90;;;;;;4993926;28;20203;-89
2022/05/14 06:22:46;;;;;;;13.02;5.35;;;22.30;99.90;;;;;;4989318;28;20210;-88
2022/05/14 06:25:20;;;;;;;25.60;6.82;;;22.60;99.90;;;;;;4994821;28;20215;-90
2022/05/14 06:27:56;;;;;;;17.58;6.43;;;23.20;99.90;;;;;;4992549;28;20325;-90
2022/05/14 06:30:33;;;;;;;14.68;5.75;;;23.40;99.90;;;;;;4991220;28;20633;-88
2022/05/14 06:33:40;;;;;;;21.63;6.63;;;23.60;99.90;;;;;;4989948;28;20238;-89
2022/05/14 06:36:19;;;;;;;18.10;6.47;;;24.60;99.90;;;;;;4987443;28;20273;-88
2022/05/14 06:38:50;;;;;;;15.82;6.07;;;24.50;99.90;;;;;;5001112;28;20206;-89
2022/05/14 06:41:19;;;;;;;11.43;5.65;;;24.80;99.90;;;;;;5004042;28;20207;-92
2022/05/14 06:43:56;;;;;;;14.70;5.85;;;25.20;99.90;;;;;;4972336;28;20215;-89
2022/05/14 06:56:27;;;;;;;17.25;5.57;;;26.10;99.90;;;;;;4947705;29;20240;-90
2022/05/14 06:59:03;;;;;;;13.13;4.75;;;26.20;98.80;;;;;;4934115;29;20267;-89
2022/05/14 07:01:48;;;;;;;20.25;5.70;;;26.70;98.70;;;;;;4956389;28;20243;-86
2022/05/14 07:07:31;;;;;;;16.95;5.22;;;27.20;96.30;;;;;;4998214;28;20215;-86
2022/05/14 07:10:07;;;;;;;15.77;4.70;;;27.10;95.80;;;;;;4989521;28;20226;-87
2022/05/14 07:12:36;;;;;;;15.70;4.47;;;27.20;95.00;;;;;;4991144;28;20210;-89
2022/05/14 07:15:05;;;;;;;14.82;4.50;;;27.60;94.50;;;;;;4991052;28;20221;-86
2022/05/14 07:17:49;;;;;;;;;;;;;;;;;;;;;
2022/05/14 07:20:30;;;;;;;16.55;5.13;;;27.80;93.00;;;;;;4991008;28;21045;-89
2022/05/14 07:23:21;;;;;;;19.80;4.82;;;26.80;91.80;;;;;;5017757;28;20199;-89
2022/05/14 07:26:27;;;;;;;15.70;5.03;;;26.80;92.00;;;;;;5001344;28;20253;-90
2022/05/14 07:33:26;;;;;;;;;;;;;;;;;;;;;
2022/05/14 07:35:44;;;;;;;;;;;;;;;;;;;;;
2022/05/14 07:38:35;;;;;;;11.35;3.95;;;27.60;89.20;;;;;;5019174;28;20206;-89
2022/05/14 07:41:25;;;;;;;15.88;5.00;;;27.90;87.40;;;;;;4990059;28;20210;-92
2022/05/14 07:44:36;;;;;;;17.08;4.85;;;27.90;87.30;;;;;;5003283;28;20221;-90
2022/05/14 07:47:27;;;;;;;17.30;4.03;;;28.10;85.40;;;;;;4994815;28;20214;-90
2022/05/14 07:50:31;;;;;;;12.38;4.10;;;28.10;85.10;;;;;;5003105;28;20207;-90
2022/05/14 07:53:30;;;;;;;;;;;;;;;;;;;;;
2022/05/14 07:56:26;;;;;;;15.50;4.35;;;28.30;81.00;;;;;;5003218;28;20230;-91
2022/05/14 07:59:23;;;;;;;15.45;4.53;;;28.50;81.50;;;;;;5001343;28;20198;-88
2022/05/14 08:02:31;;;;;;;14.75;3.70;;;28.90;83.70;;;;;;5002288;28;20210;-90
2022/05/14 08:05:20;;;;;;;11.93;3.55;;;28.50;80.90;;;;;;4989440;28;20632;-91
2022/05/14 08:08:15;;;;;;;13.80;4.18;;;28.50;77.50;;;;;;4997214;28;20261;-94
2022/05/14 08:11:59;;;;;;;;;;;;;;;;;;;;;
2022/05/14 08:14:56;;;;;;;15.00;4.20;;;28.30;78.40;;;;;;4997858;28;20206;-91
2022/05/14 08:17:41;;;;;;;17.75;4.60;;;28.10;79.50;;;;;;4987148;28;20241;-89
2022/05/14 08:20:34;;;;;;;16.90;5.47;;;28.10;80.10;;;;;;4952784;28;20208;-88
2022/05/14 08:26:08;;;;;;;13.52;4.13;;;28.30;77.70;;;;;;4958716;28;20239;-91
2022/05/14 08:28:52;;;;;;;13.73;3.85;;;28.30;77.70;;;;;;4943114;28;20251;-89
2022/05/14 08:32:06;;;;;;;;;;;;;;;;;;;;;
2022/05/14 08:35:45;;;;;;;;;;;;;;;;;;;;;
2022/05/14 08:41:58;;;;;;;13.60;4.32;;;28.10;75.80;;;;;;4936397;29;20213;-88
2022/05/14 08:44:44;;;;;;;18.33;4.72;;;28.20;93.00;;;;;;4934278;29;20296;-89
2022/05/14 08:47:39;;;;;;;12.65;4.50;;;28.40;86.60;;;;;;4921768;29;20796;-88
2022/05/14 08:50:10;;;;;;;17.15;4.90;;;27.50;90.40;;;;;;4921596;29;20254;-90
2022/05/14 08:52:39;;;;;;;13.10;4.22;;;26.90;77.00;;;;;;4916197;29;20207;-84
2022/05/14 08:55:17;;;;;;;11.98;4.25;;;26.70;78.10;;;;;;4925920;28;20276;-86
2022/05/14 08:58:07;;;;;;;13.27;3.80;;;26.40;77.60;;;;;;4968819;28;20253;-87
2022/05/14 09:00:49;;;;;;;18.10;5.03;;;25.90;77.80;;;;;;5017704;28;20207;-87
2022/05/14 09:03:24;;;;;;;16.40;4.00;;;25.40;75.80;;;;;;5010871;28;20218;-88
2022/05/14 09:06:19;;;;;;;14.30;4.43;;;25.40;77.00;;;;;;5009852;28;20203;-87
2022/05/14 09:08:57;;;;;;;13.13;3.55;;;25.20;76.80;;;;;;4989715;28;20651;-85
2022/05/14 09:11:55;;;;;;;;;;;;;;;;;;;;;
2022/05/14 09:14:28;;;;;;;13.77;4.28;;;25.20;78.00;;;;;;4989775;28;20221;-86
2022/05/14 09:17:16;;;;;;;15.73;3.70;;;25.50;78.90;;;;;;4992538;28;20266;-85
2022/05/14 09:19:51;;;;;;;12.57;4.32;;;26.20;76.60;;;;;;4991623;28;20238;-84
2022/05/14 09:22:22;;;;;;;15.02;4.03;;;26.60;77.00;;;;;;4988947;28;20294;-84
2022/05/14 09:25:20;;;;;;;14.15;3.92;;;26.80;76.20;;;;;;4989899;28;20227;-83
2022/05/14 09:28:10;;;;;;;14.70;4.07;;;26.60;75.60;;;;;;5003515;28;20218;-82
2022/05/14 09:30:57;;;;;;;13.23;3.67;;;26.20;76.00;;;;;;4989431;28;20301;-82
2022/05/14 09:33:31;;;;;;;18.27;4.85;;;26.10;76.90;;;;;;4990044;28;20215;-85
2022/05/14 09:36:02;;;;;;;13.95;3.90;;;26.10;76.10;;;;;;4988417;28;20207;-84
2022/05/14 09:38:31;;;;;;;14.18;4.45;;;26.00;75.60;;;;;;4992164;28;20984;-85
2022/05/14 09:41:21;;;;;;;12.90;4.20;;;26.00;76.60;;;;;;4994336;28;20266;-86
2022/05/14 09:43:58;;;;;;;12.73;3.67;;;26.00;75.90;;;;;;5009262;28;20288;-84
2022/05/14 09:46:34;;;;;;;13.13;4.53;;;25.80;76.20;;;;;;4979281;28;20291;-84
2022/05/14 09:49:08;;;;;;;14.82;4.32;;;25.60;76.20;;;;;;4989007;28;20295;-84
2022/05/14 09:51:47;;;;;;;11.15;3.47;;;25.40;76.60;;;;;;4991476;28;20866;-84
2022/05/14 09:54:38;;;;;;;12.90;4.18;;;25.20;77.50;;;;;;4988219;28;20610;-90
2022/05/14 09:57:28;;;;;;;13.05;3.72;;;25.20;77.70;;;;;;4987429;28;20889;-88
2022/05/14 10:01:01;;;;;;;11.82;3.53;;;25.30;78.40;;;;;;5000050;28;20199;-90
2022/05/14 10:04:07;;;;;;;11.55;4.28;;;25.40;77.60;;;;;;4990082;28;20234;-88
2022/05/14 10:07:21;;;;;;;12.10;3.28;;;25.40;77.40;;;;;;5003940;28;20208;-94
2022/05/14 10:10:24;;;;;;;13.70;4.05;;;25.40;77.90;;;;;;5003192;28;20233;-85
2022/05/14 10:12:59;;;;;;;9.98;3.15;;;25.30;76.70;;;;;;5003644;28;20211;-83
2022/05/14 10:15:32;;;;;;;13.02;4.00;;;25.40;76.90;;;;;;5005434;28;20201;-82
2022/05/14 10:18:32;;;;;;;12.95;4.22;;;25.70;76.90;;;;;;5000896;28;20287;-84
2022/05/14 10:21:18;;;;;;;10.10;3.45;;;25.50;76.10;;;;;;4999054;28;20203;-82
2022/05/14 10:27:52;;;;;;;14.82;4.45;;;25.60;76.60;;;;;;5003216;28;20295;-81
2022/05/14 10:30:27;;;;;;;11.13;3.30;;;25.70;76.20;;;;;;4999561;28;20635;-84
2022/05/14 10:33:07;;;;;;;14.10;3.58;;;25.60;75.70;;;;;;4988456;28;20210;-83
2022/05/14 10:35:49;;;;;;;12.02;3.95;;;25.80;75.50;;;;;;4984982;28;20211;-85
2022/05/14 10:38:42;;;;;;;15.18;3.50;;;25.80;75.30;;;;;;4990144;28;20217;-89
2022/05/14 10:41:45;;;;;;;;;;;;;;;;;;;;;
2022/05/14 10:44:50;;;;;;;9.48;3.63;;;26.30;74.60;;;;;;5007884;28;20313;-91
2022/05/14 10:47:25;;;;;;;15.13;3.90;;;26.20;72.40;;;;;;4988951;28;20206;-90
2022/05/14 10:50:26;;;;;;;10.40;4.00;;;26.20;74.30;;;;;;5009266;28;20238;-90
2022/05/14 10:53:13;;;;;;;12.63;3.58;;;26.30;73.70;;;;;;4999106;28;20278;-90
2022/05/14 10:56:26;;;;;;;11.13;3.80;;;26.40;74.30;;;;;;4997010;28;20316;-89
2022/05/14 10:59:04;;;;;;;10.93;3.42;;;26.40;74.40;;;;;;4966843;28;20195;-91
2022/05/14 11:01:59;;;;;;;13.82;3.78;;;26.40;74.50;;;;;;4993881;28;20264;-90
2022/05/14 11:04:52;;;;;;;10.85;4.25;;;26.60;73.80;;;;;;5004354;28;20221;-94
2022/05/14 11:07:35;;;;;;;14.73;4.07;;;26.30;72.50;;;;;;5006060;28;20276;-89
2022/05/14 11:10:18;;;;;;;10.05;3.35;;;25.90;72.40;;;;;;4990926;28;20230;-88
2022/05/14 11:12:52;;;;;;;10.80;3.88;;;25.70;73.10;;;;;;4990670;28;20203;-90
2022/05/14 11:15:34;;;;;;;12.00;4.18;;;25.60;73.10;;;;;;4991551;28;20203;-90
2022/05/14 11:18:27;;;;;;;12.77;3.20;;;25.60;73.00;;;;;;4990315;28;20206;-89
2022/05/14 11:21:39;;;;;;;13.00;3.40;;;25.40;73.00;;;;;;4993682;28;20293;-93
2022/05/14 11:24:40;;;;;;;9.88;3.35;;;25.30;74.20;;;;;;5012107;28;20226;-94
2022/05/14 11:28:37;;;;;;;;;;;;;;;;;;;;;
2022/05/14 11:31:26;;;;;;;14.23;3.97;;;25.50;73.20;;;;;;5011256;28;20210;-93
2022/05/14 11:34:46;;;;;;;11.25;3.97;;;25.40;74.60;;;;;;5002115;28;20233;-92
2022/05/14 11:37:50;;;;;;;14.48;3.80;;;25.50;74.80;;;;;;4997551;28;20198;-93
2022/05/14 11:40:37;;;;;;;;;;;;;;;;;;;;;
2022/05/14 11:43:38;;;;;;;13.15;4.68;;;25.40;74.10;;;;;;5009649;28;20677;-88
2022/05/14 11:46:41;;;;;;;11.45;3.90;;;25.50;74.10;;;;;;4998407;28;20616;-92
2022/05/14 11:49:28;;;;;;;13.45;3.60;;;25.70;73.10;;;;;;5000606;28;20233;-90
2022/05/14 11:51:56;;;;;;;13.85;3.60;;;;;;;;;;4991343;28;20592;-81
2022/05/14 11:54:30;;;;;;;14.05;4.38;;;25.80;71.20;;;;;;5006794;28;20218;-83
2022/05/14 11:57:41;;;;;;;13.40;3.88;;;26.00;72.70;;;;;;5010799;28;20245;-87
2022/05/14 12:00:26;;;;;;;14.45;3.50;;;26.10;71.90;;;;;;5009158;28;20247;-88
2022/05/14 12:03:06;;;;;;;13.52;3.90;;;26.30;71.80;;;;;;5000006;28;20202;-87
2022/05/14 12:05:45;;;;;;;12.65;3.55;;;26.40;70.20;;;;;;4995303;28;20566;-85
2022/05/14 12:08:51;;;;;;;11.15;3.20;;;26.60;70.40;;;;;;5013217;28;20298;-88
2022/05/14 12:11:47;;;;;;;12.80;3.47;;;26.70;69.70;;;;;;5015997;28;20263;-89
2022/05/14 12:14:19;;;;;;;14.98;4.32;;;26.60;70.50;;;;;;4999005;28;20463;-87
2022/05/14 12:16:51;;;;;;;12.52;3.38;;;26.80;69.60;;;;;;4995282;28;20210;-87
2022/05/14 12:19:28;;;;;;;11.13;3.40;;;26.80;69.70;;;;;;5013468;28;20194;-85
2022/05/14 12:21:57;;;;;;;10.18;3.55;;;26.90;71.00;;;;;;5007668;28;20203;-87
2022/05/14 12:24:55;;;;;;;11.77;4.05;;;27.00;70.60;;;;;;5014492;28;20222;-87
2022/05/14 12:27:23;;;;;;;8.38;2.88;;;27.10;69.50;;;;;;4995738;28;20262;-83
2022/05/14 12:29:54;;;;;;;9.70;3.15;;;27.10;69.70;;;;;;4997951;28;20243;-87
2022/05/14 12:35:24;;;;;;;12.80;3.65;;;27.40;69.40;;;;;;5010155;28;20867;-85
2022/05/14 12:37:59;;;;;;;10.98;3.58;;;27.30;67.90;;;;;;4988297;28;20671;-84
2022/05/14 12:40:28;;;;;;;13.35;3.33;;;27.30;67.70;;;;;;5012486;28;20340;-81
2022/05/14 12:42:57;;;;;;;10.45;4.10;;;27.30;67.20;;;;;;5009451;28;20207;-86
2022/05/14 12:45:41;;;;;;;12.43;3.75;;;27.30;66.50;;;;;;5015822;28;20207;-83
2022/05/14 12:48:16;;;;;;;9.75;3.05;;;27.50;66.90;;;;;;5014921;28;20270;-85
2022/05/14 12:50:53;;;;;;;15.40;3.90;;;27.60;67.20;;;;;;5013980;28;20237;-85
2022/05/14 12:53:36;;;;;;;13.82;3.47;;;27.70;66.80;;;;;;5013867;28;20202;-84
2022/05/14 12:56:04;;;;;;;12.63;3.70;;;27.50;66.20;;;;;;5006754;28;20970;-81
2022/05/14 12:58:34;;;;;;;16.27;4.20;;;27.40;67.10;;;;;;5013146;28;20289;-88
2022/05/14 13:01:07;;;;;;;13.68;4.60;;;27.40;66.50;;;;;;4995319;28;20947;-87
2022/05/14 13:03:39;;;;;;;12.57;3.83;;;27.70;65.00;;;;;;5014684;28;20202;-84
2022/05/14 13:06:17;;;;;;;11.93;4.05;;;27.40;65.50;;;;;;4995891;28;20210;-88
2022/05/14 13:08:49;;;;;;;12.23;3.83;;;27.10;66.70;;;;;;4996621;28;20206;-87
2022/05/14 13:11:19;;;;;;;11.20;3.15;;;26.90;66.90;;;;;;5011120;28;20613;-89
2022/05/14 13:13:51;;;;;;;13.07;3.58;;;26.80;67.10;;;;;;5012438;28;20214;-89
2022/05/14 13:16:24;;;;;;;12.40;3.38;;;26.80;67.50;;;;;;5009007;28;20229;-87
2022/05/14 13:18:53;;;;;;;16.48;4.00;;;26.80;66.90;;;;;;4997165;28;20209;-88
2022/05/14 13:21:23;;;;;;;15.48;3.63;;;26.80;66.70;;;;;;5012018;28;20680;-87
2022/05/14 13:23:59;;;;;;;13.98;4.00;;;26.90;67.10;;;;;;4994548;28;20284;-84
2022/05/14 13:26:40;;;;;;;18.60;3.85;;;26.90;67.30;;;;;;5015768;28;20264;-83
2022/05/14 13:29:20;;;;;;;11.05;2.97;;;26.90;66.60;;;;;;4995017;28;20236;-88
2022/05/14 13:31:55;;;;;;;15.95;3.83;;;26.70;66.10;;;;;;5016280;28;20195;-89
2022/05/14 13:37:34;;;;;;;11.13;3.63;;;26.50;66.60;;;;;;5018086;28;20655;-89
2022/05/14 13:40:58;;;;;;;;;;;;;;;;;;;;;
2022/05/14 13:43:43;;;;;;;12.20;3.58;;;26.40;67.50;;;;;;5012584;28;20207;-92
2022/05/14 13:46:16;;;;;;;9.48;3.50;;;26.40;67.40;;;;;;5000765;28;20218;-90
2022/05/14 13:48:48;;;;;;;13.98;4.68;;;26.50;67.00;;;;;;5001803;28;20220;-90
2022/05/14 13:51:37;;;;;;;15.20;3.55;;;26.60;66.30;;;;;;5002027;28;20253;-92
2022/05/14 13:54:40;;;;;;;13.60;3.63;;;26.60;66.50;;;;;;5001561;28;20210;-91
2022/05/14 13:57:41;;;;;;;12.38;3.13;;;26.70;66.70;;;;;;4983426;28;20225;-90
2022/05/14 14:00:33;;;;;;;16.77;3.92;;;26.70;66.90;;;;;;4951523;28;20199;-91
2022/05/14 14:03:07;;;;;;;11.52;3.55;;;26.80;66.60;;;;;;5000055;28;20648;-92
2022/05/14 14:05:39;;;;;;;13.85;3.80;;;26.90;67.40;;;;;;4983598;28;20198;-90
2022/05/14 14:08:12;;;;;;;13.82;3.55;;;26.90;67.40;;;;;;4997472;28;20206;-91
2022/05/14 14:10:49;;;;;;;13.05;3.80;;;27.00;67.40;;;;;;4999697;28;20239;-90
2022/05/14 14:13:23;;;;;;;11.95;3.67;;;27.00;66.80;;;;;;4999555;28;20567;-89
2022/05/14 14:16:01;;;;;;;11.90;3.78;;;26.90;66.00;;;;;;5005632;28;20209;-90
2022/05/14 14:18:40;;;;;;;13.68;4.05;;;26.70;66.40;;;;;;5004851;28;20217;-93
2022/05/14 14:21:30;;;;;;;13.68;4.13;;;26.50;66.30;;;;;;5006642;28;20214;-90
2022/05/14 14:24:15;;;;;;;12.20;3.70;;;26.30;67.10;;;;;;5004666;28;20222;-91
2022/05/14 14:26:50;;;;;;;14.48;4.10;;;26.10;67.40;;;;;;5006397;28;20203;-91
2022/05/14 14:29:32;;;;;;;11.23;3.17;;;26.00;67.60;;;;;;5007250;28;20191;-90
2022/05/14 14:32:07;;;;;;;13.50;4.20;;;26.00;67.60;;;;;;5013676;28;20270;-90
2022/05/14 14:34:46;;;;;;;12.30;3.65;;;26.00;67.60;;;;;;5013671;28;20214;-91
2022/05/14 14:37:20;;;;;;;14.50;4.72;;;25.90;67.80;;;;;;5013523;28;20276;-91
2022/05/14 14:39:59;;;;;;;14.43;4.13;;;26.00;67.80;;;;;;5013629;28;20221;-89
2022/05/14 14:42:27;;;;;;;14.32;4.32;;;25.90;67.90;;;;;;5003295;28;20211;-81
2022/05/14 14:45:03;;;;;;;15.13;4.32;;;25.90;68.20;;;;;;4991065;28;20412;-90
2022/05/14 14:47:44;;;;;;;19.35;5.78;;;25.90;68.00;;;;;;5002942;28;20234;-91
2022/05/14 14:50:18;;;;;;;16.33;7.35;;;25.80;68.90;;;;;;5001286;28;20246;-90
2022/05/14 14:52:46;;;;;;;20.88;9.07;;;25.70;69.30;;;;;;4996905;28;20208;-89